Flight Track Log - Related Links

Times and Time Zones

All times are in EDT time to prevent confusion due to time zone crossing. See the LAN930 flight status page for this flight to view local times or setup timezone preferences in your user account.

Time Position Orientation Groundspeed Altitude Reporting Facility
EDT Latitude Longitude Course Direction KTS MPH feet Rate Location/Type
Fri 09:56:20 AM -33.7980 -69.9110 97° East 423 487 22,000  Level FlightAware ADS-B
Fri 09:59:00 AM -33.7232 -69.8232 44° Northeast  Level Estimated
Fri 10:00:00 AM -33.6952 -69.7903 44° Northeast  Level Estimated
Fri 10:01:00 AM -33.6671 -69.7574 44° Northeast  Level Estimated
Fri 10:02:00 AM -33.6390 -69.7245 44° Northeast  Level Estimated
Fri 10:03:00 AM -33.6109 -69.6917 44° Northeast  Level Estimated
Fri 10:04:00 AM -33.5829 -69.6589 44° Northeast  Level Estimated
Fri 10:05:00 AM -33.5547 -69.6261 44° Northeast  Level Estimated
Fri 10:06:00 AM -33.5266 -69.5933 44° Northeast  Level Estimated
Fri 10:07:00 AM -33.4985 -69.5605 44° Northeast  Level Estimated
Fri 10:08:00 AM -33.4727 -69.5305 44° Northeast  Level Estimated
Fri 10:09:00 AM -33.4468 -69.5005 44° Northeast  Level Estimated
Fri 10:10:00 AM -33.4210 -69.4704 44° Northeast  Level Estimated
Fri 10:11:00 AM -33.3952 -69.4404 44° Northeast  Level Estimated
Fri 10:12:00 AM -33.3693 -69.4104 44° Northeast  Level Estimated
Fri 10:13:00 AM -33.3434 -69.3805 44° Northeast  Level Estimated
Fri 10:14:00 AM -33.3176 -69.3505 44° Northeast  Level Estimated
Fri 10:15:00 AM -33.2917 -69.3206 44° Northeast  Level Estimated
Fri 10:16:00 AM -33.2658 -69.2906 44° Northeast  Level Estimated
Fri 10:17:00 AM -33.2399 -69.2607 44° Northeast  Level Estimated
Fri 10:18:00 AM -33.2140 -69.2309 44° Northeast  Level Estimated
Fri 10:19:00 AM -33.1881 -69.2010 44° Northeast  Level Estimated
Fri 10:20:00 AM -33.1622 -69.1712 44° Northeast  Level Estimated
Fri 10:21:00 AM -33.1362 -69.1413 44° Northeast  Level Estimated
Fri 10:22:00 AM -33.1103 -69.1115 44° Northeast  Level Estimated
Fri 10:23:00 AM -33.0844 -69.0817 44° Northeast  Level Estimated
Fri 10:24:00 AM -33.0584 -69.0519 44° Northeast  Level Estimated
Fri 10:25:00 AM -33.0325 -69.0222 44° Northeast  Level Estimated
Fri 10:26:00 AM -33.0065 -68.9924 44° Northeast  Level Estimated
Fri 10:27:00 AM -32.9805 -68.9627 44° Northeast  Level Estimated
Fri 10:28:00 AM -32.9546 -68.9330 44° Northeast  Level Estimated
Fri 10:29:00 AM -32.9286 -68.9033 44° Northeast  Level Estimated
Fri 10:30:00 AM -32.9026 -68.8737 44° Northeast  Level Estimated
Fri 10:31:00 AM -32.8766 -68.8440 44° Northeast  Level Estimated
Fri 10:32:00 AM -32.8506 -68.8144 44° Northeast  Level Estimated
Fri 10:33:00 AM -32.8317 -68.7929 44° Northeast  Level Estimated
Fri 10:34:00 AM -32.8317 -68.7929 48° Northeast  Level Estimated
Fri 10:35:00 AM -32.8317 -68.7929 48° Northeast  Level Estimated
Fri 10:36:00 AM -32.8317 -68.7929 48° Northeast  Level Estimated

Login

Don't have an account? Register now (free) for customized features, flight alerts, and more!